sensor_id;sensor_type;location;lat;lon;timestamp;P1;durP1;ratioP1;P2;durP2;ratioP2
14554;SDS011;7364;50.870;4.722;2022-07-04T00:01:56;7.23;;;3.83;;
14554;SDS011;7364;50.870;4.722;2022-07-04T00:04:23;4.70;;;3.43;;
14554;SDS011;7364;50.870;4.722;2022-07-04T00:06:51;6.97;;;3.87;;
14554;SDS011;7364;50.870;4.722;2022-07-04T00:09:18;5.13;;;3.07;;
14554;SDS011;7364;50.870;4.722;2022-07-04T00:11:45;6.97;;;3.60;;
14554;SDS011;7364;50.870;4.722;2022-07-04T00:14:14;6.33;;;4.00;;
14554;SDS011;7364;50.870;4.722;2022-07-04T00:16:41;7.40;;;3.83;;
14554;SDS011;7364;50.870;4.722;2022-07-04T00:19:08;8.57;;;4.23;;
14554;SDS011;7364;50.870;4.722;2022-07-04T00:21:35;7.40;;;3.90;;
14554;SDS011;7364;50.870;4.722;2022-07-04T00:24:02;9.43;;;4.23;;
14554;SDS011;7364;50.870;4.722;2022-07-04T00:26:30;5.90;;;4.00;;
14554;SDS011;7364;50.870;4.722;2022-07-04T00:28:57;10.67;;;3.63;;
14554;SDS011;7364;50.870;4.722;2022-07-04T00:31:26;6.47;;;3.20;;
14554;SDS011;7364;50.870;4.722;2022-07-04T00:33:53;6.80;;;3.57;;
14554;SDS011;7364;50.870;4.722;2022-07-04T00:36:20;5.07;;;2.97;;
14554;SDS011;7364;50.870;4.722;2022-07-04T00:38:48;6.83;;;3.50;;
14554;SDS011;7364;50.870;4.722;2022-07-04T00:41:15;4.33;;;2.93;;
14554;SDS011;7364;50.870;4.722;2022-07-04T00:43:42;7.30;;;3.10;;
14554;SDS011;7364;50.870;4.722;2022-07-04T00:46:10;5.17;;;2.93;;
14554;SDS011;7364;50.870;4.722;2022-07-04T00:48:41;4.87;;;2.90;;
14554;SDS011;7364;50.870;4.722;2022-07-04T00:51:08;4.40;;;2.93;;
14554;SDS011;7364;50.870;4.722;2022-07-04T00:53:35;7.43;;;3.00;;
14554;SDS011;7364;50.870;4.722;2022-07-04T00:56:03;9.00;;;3.20;;
14554;SDS011;7364;50.870;4.722;2022-07-04T00:58:31;6.10;;;3.10;;
14554;SDS011;7364;50.870;4.722;2022-07-04T01:00:58;5.60;;;2.53;;
14554;SDS011;7364;50.870;4.722;2022-07-04T01:03:26;5.80;;;2.67;;
14554;SDS011;7364;50.870;4.722;2022-07-04T01:05:54;5.10;;;2.97;;
14554;SDS011;7364;50.870;4.722;2022-07-04T01:08:23;4.13;;;2.43;;
14554;SDS011;7364;50.870;4.722;2022-07-04T01:10:50;3.97;;;2.77;;
14554;SDS011;7364;50.870;4.722;2022-07-04T01:13:21;9.17;;;3.10;;
14554;SDS011;7364;50.870;4.722;2022-07-04T01:15:49;4.27;;;2.87;;
14554;SDS011;7364;50.870;4.722;2022-07-04T01:18:17;7.77;;;3.20;;
14554;SDS011;7364;50.870;4.722;2022-07-04T01:20:46;5.43;;;3.13;;
14554;SDS011;7364;50.870;4.722;2022-07-04T01:23:13;5.27;;;3.03;;
14554;SDS011;7364;50.870;4.722;2022-07-04T01:25:41;6.30;;;2.93;;
14554;SDS011;7364;50.870;4.722;2022-07-04T01:28:10;5.30;;;2.60;;
14554;SDS011;7364;50.870;4.722;2022-07-04T01:30:37;6.70;;;3.30;;
14554;SDS011;7364;50.870;4.722;2022-07-04T01:33:05;5.33;;;2.30;;
14554;SDS011;7364;50.870;4.722;2022-07-04T01:35:32;6.13;;;2.87;;
14554;SDS011;7364;50.870;4.722;2022-07-04T01:38:00;5.53;;;2.77;;
14554;SDS011;7364;50.870;4.722;2022-07-04T01:40:29;5.63;;;2.90;;
14554;SDS011;7364;50.870;4.722;2022-07-04T01:42:56;4.83;;;2.90;;
14554;SDS011;7364;50.870;4.722;2022-07-04T01:45:24;8.57;;;2.93;;
14554;SDS011;7364;50.870;4.722;2022-07-04T01:47:51;6.57;;;3.40;;
14554;SDS011;7364;50.870;4.722;2022-07-04T01:50:18;7.30;;;3.40;;
14554;SDS011;7364;50.870;4.722;2022-07-04T01:52:46;9.30;;;3.80;;
14554;SDS011;7364;50.870;4.722;2022-07-04T01:55:29;8.47;;;3.93;;
14554;SDS011;7364;50.870;4.722;2022-07-04T01:57:56;9.50;;;3.37;;
14554;SDS011;7364;50.870;4.722;2022-07-04T02:00:25;8.50;;;3.10;;
14554;SDS011;7364;50.870;4.722;2022-07-04T02:03:10;4.83;;;3.10;;
14554;SDS011;7364;50.870;4.722;2022-07-04T02:05:37;5.83;;;2.70;;
14554;SDS011;7364;50.870;4.722;2022-07-04T02:08:04;6.30;;;3.07;;
14554;SDS011;7364;50.870;4.722;2022-07-04T02:10:33;4.17;;;2.33;;
14554;SDS011;7364;50.870;4.722;2022-07-04T02:13:01;5.80;;;2.77;;
14554;SDS011;7364;50.870;4.722;2022-07-04T02:15:29;5.30;;;2.90;;
14554;SDS011;7364;50.870;4.722;2022-07-04T02:17:57;5.97;;;2.80;;
14554;SDS011;7364;50.870;4.722;2022-07-04T02:20:27;6.00;;;3.10;;
14554;SDS011;7364;50.870;4.722;2022-07-04T02:22:54;4.10;;;3.13;;
14554;SDS011;7364;50.870;4.722;2022-07-04T02:25:22;5.57;;;2.97;;
14554;SDS011;7364;50.870;4.722;2022-07-04T02:27:50;4.80;;;2.47;;
14554;SDS011;7364;50.870;4.722;2022-07-04T02:30:17;5.00;;;2.33;;
14554;SDS011;7364;50.870;4.722;2022-07-04T02:32:45;6.23;;;2.67;;
14554;SDS011;7364;50.870;4.722;2022-07-04T02:35:12;3.53;;;2.90;;
14554;SDS011;7364;50.870;4.722;2022-07-04T02:37:40;3.87;;;2.73;;
14554;SDS011;7364;50.870;4.722;2022-07-04T02:40:07;5.30;;;3.00;;
14554;SDS011;7364;50.870;4.722;2022-07-04T02:42:35;3.83;;;2.27;;
14554;SDS011;7364;50.870;4.722;2022-07-04T02:45:05;4.30;;;2.57;;
14554;SDS011;7364;50.870;4.722;2022-07-04T02:47:33;5.87;;;2.70;;
14554;SDS011;7364;50.870;4.722;2022-07-04T02:50:02;4.80;;;2.57;;
14554;SDS011;7364;50.870;4.722;2022-07-04T02:52:30;4.30;;;2.60;;
14554;SDS011;7364;50.870;4.722;2022-07-04T02:54:57;5.37;;;2.57;;
14554;SDS011;7364;50.870;4.722;2022-07-04T02:57:25;6.03;;;2.53;;
14554;SDS011;7364;50.870;4.722;2022-07-04T02:59:55;4.57;;;2.60;;
14554;SDS011;7364;50.870;4.722;2022-07-04T03:02:24;7.03;;;3.23;;
14554;SDS011;7364;50.870;4.722;2022-07-04T03:04:51;10.87;;;3.63;;
14554;SDS011;7364;50.870;4.722;2022-07-04T03:07:18;6.33;;;3.63;;
14554;SDS011;7364;50.870;4.722;2022-07-04T03:09:45;5.77;;;3.33;;
14554;SDS011;7364;50.870;4.722;2022-07-04T03:12:13;3.70;;;2.67;;
14554;SDS011;7364;50.870;4.722;2022-07-04T03:14:40;4.83;;;2.83;;
14554;SDS011;7364;50.870;4.722;2022-07-04T03:17:07;5.10;;;2.80;;
14554;SDS011;7364;50.870;4.722;2022-07-04T03:19:36;5.57;;;2.90;;
14554;SDS011;7364;50.870;4.722;2022-07-04T03:22:03;4.53;;;3.20;;
14554;SDS011;7364;50.870;4.722;2022-07-04T03:24:30;5.10;;;3.00;;
14554;SDS011;7364;50.870;4.722;2022-07-04T03:26:58;4.20;;;2.80;;
14554;SDS011;7364;50.870;4.722;2022-07-04T03:29:25;4.37;;;2.63;;
14554;SDS011;7364;50.870;4.722;2022-07-04T03:31:52;4.43;;;2.87;;
14554;SDS011;7364;50.870;4.722;2022-07-04T03:34:19;4.20;;;2.77;;
14554;SDS011;7364;50.870;4.722;2022-07-04T03:36:48;3.70;;;2.30;;
14554;SDS011;7364;50.870;4.722;2022-07-04T03:39:15;5.30;;;2.80;;
14554;SDS011;7364;50.870;4.722;2022-07-04T03:41:42;4.93;;;2.70;;
14554;SDS011;7364;50.870;4.722;2022-07-04T03:44:09;6.03;;;2.77;;
14554;SDS011;7364;50.870;4.722;2022-07-04T03:46:36;5.10;;;2.43;;
14554;SDS011;7364;50.870;4.722;2022-07-04T03:49:04;3.47;;;2.50;;
14554;SDS011;7364;50.870;4.722;2022-07-04T03:51:31;6.73;;;3.00;;
14554;SDS011;7364;50.870;4.722;2022-07-04T03:54:03;4.20;;;2.07;;
14554;SDS011;7364;50.870;4.722;2022-07-04T03:56:31;3.20;;;2.40;;
14554;SDS011;7364;50.870;4.722;2022-07-04T03:58:58;4.80;;;2.57;;
14554;SDS011;7364;50.870;4.722;2022-07-04T04:01:27;3.57;;;2.27;;
14554;SDS011;7364;50.870;4.722;2022-07-04T04:03:54;3.80;;;2.73;;
14554;SDS011;7364;50.870;4.722;2022-07-04T04:06:38;2.87;;;2.30;;
14554;SDS011;7364;50.870;4.722;2022-07-04T04:09:07;5.53;;;2.80;;
14554;SDS011;7364;50.870;4.722;2022-07-04T04:11:41;5.50;;;2.57;;
14554;SDS011;7364;50.870;4.722;2022-07-04T04:14:08;5.17;;;3.07;;
14554;SDS011;7364;50.870;4.722;2022-07-04T04:16:36;6.80;;;3.20;;
14554;SDS011;7364;50.870;4.722;2022-07-04T04:19:04;7.07;;;3.03;;
14554;SDS011;7364;50.870;4.722;2022-07-04T04:21:31;4.40;;;2.77;;
14554;SDS011;7364;50.870;4.722;2022-07-04T04:23:58;4.07;;;2.77;;
14554;SDS011;7364;50.870;4.722;2022-07-04T04:26:26;5.13;;;3.03;;
14554;SDS011;7364;50.870;4.722;2022-07-04T04:28:54;5.10;;;2.93;;
14554;SDS011;7364;50.870;4.722;2022-07-04T04:31:21;4.07;;;2.90;;
14554;SDS011;7364;50.870;4.722;2022-07-04T04:33:48;4.93;;;3.20;;
14554;SDS011;7364;50.870;4.722;2022-07-04T04:36:16;7.30;;;3.50;;
14554;SDS011;7364;50.870;4.722;2022-07-04T04:38:43;6.73;;;2.93;;
14554;SDS011;7364;50.870;4.722;2022-07-04T04:41:10;4.80;;;3.23;;
14554;SDS011;7364;50.870;4.722;2022-07-04T04:43:39;4.77;;;3.20;;
14554;SDS011;7364;50.870;4.722;2022-07-04T04:46:06;4.63;;;3.57;;
14554;SDS011;7364;50.870;4.722;2022-07-04T04:48:33;5.57;;;2.80;;
14554;SDS011;7364;50.870;4.722;2022-07-04T04:51:00;8.90;;;3.27;;
14554;SDS011;7364;50.870;4.722;2022-07-04T04:53:28;5.17;;;3.40;;
14554;SDS011;7364;50.870;4.722;2022-07-04T04:55:56;5.07;;;2.70;;
14554;SDS011;7364;50.870;4.722;2022-07-04T04:58:23;10.03;;;3.40;;
14554;SDS011;7364;50.870;4.722;2022-07-04T05:00:52;6.83;;;3.50;;
14554;SDS011;7364;50.870;4.722;2022-07-04T05:03:20;6.07;;;2.83;;
14554;SDS011;7364;50.870;4.722;2022-07-04T05:05:47;5.37;;;2.80;;
14554;SDS011;7364;50.870;4.722;2022-07-04T05:08:14;5.30;;;3.13;;
14554;SDS011;7364;50.870;4.722;2022-07-04T05:10:41;4.57;;;3.30;;
14554;SDS011;7364;50.870;4.722;2022-07-04T05:13:08;6.73;;;2.70;;
14554;SDS011;7364;50.870;4.722;2022-07-04T05:15:35;4.47;;;2.50;;
14554;SDS011;7364;50.870;4.722;2022-07-04T05:18:04;6.63;;;3.10;;
14554;SDS011;7364;50.870;4.722;2022-07-04T05:20:31;6.93;;;3.00;;
14554;SDS011;7364;50.870;4.722;2022-07-04T05:22:59;5.60;;;2.90;;
14554;SDS011;7364;50.870;4.722;2022-07-04T05:25:26;7.47;;;3.00;;
14554;SDS011;7364;50.870;4.722;2022-07-04T05:27:53;5.40;;;2.80;;
14554;SDS011;7364;50.870;4.722;2022-07-04T05:30:20;5.53;;;3.00;;
14554;SDS011;7364;50.870;4.722;2022-07-04T05:32:47;6.77;;;2.83;;
14554;SDS011;7364;50.870;4.722;2022-07-04T05:35:16;4.00;;;2.53;;
14554;SDS011;7364;50.870;4.722;2022-07-04T05:37:43;5.37;;;2.93;;
14554;SDS011;7364;50.870;4.722;2022-07-04T05:40:11;5.53;;;2.90;;
14554;SDS011;7364;50.870;4.722;2022-07-04T05:42:38;7.90;;;2.47;;
14554;SDS011;7364;50.870;4.722;2022-07-04T05:45:06;8.03;;;2.90;;
14554;SDS011;7364;50.870;4.722;2022-07-04T05:47:34;3.87;;;2.17;;
14554;SDS011;7364;50.870;4.722;2022-07-04T05:50:01;4.97;;;2.30;;
14554;SDS011;7364;50.870;4.722;2022-07-04T05:52:30;5.33;;;2.70;;
14554;SDS011;7364;50.870;4.722;2022-07-04T05:54:57;18.60;;;3.00;;
14554;SDS011;7364;50.870;4.722;2022-07-04T05:57:24;5.20;;;2.50;;
14554;SDS011;7364;50.870;4.722;2022-07-04T05:59:52;3.83;;;2.10;;
14554;SDS011;7364;50.870;4.722;2022-07-04T06:02:19;4.43;;;2.20;;
14554;SDS011;7364;50.870;4.722;2022-07-04T06:04:47;5.63;;;1.83;;
14554;SDS011;7364;50.870;4.722;2022-07-04T06:07:14;5.70;;;2.07;;
14554;SDS011;7364;50.870;4.722;2022-07-04T06:09:43;7.80;;;2.20;;
14554;SDS011;7364;50.870;4.722;2022-07-04T06:12:10;9.03;;;2.47;;
14554;SDS011;7364;50.870;4.722;2022-07-04T06:14:37;6.43;;;2.10;;
14554;SDS011;7364;50.870;4.722;2022-07-04T06:17:04;3.10;;;1.80;;
14554;SDS011;7364;50.870;4.722;2022-07-04T06:19:31;6.50;;;2.60;;
14554;SDS011;7364;50.870;4.722;2022-07-04T06:21:58;4.23;;;2.03;;
14554;SDS011;7364;50.870;4.722;2022-07-04T06:24:26;8.33;;;2.13;;
14554;SDS011;7364;50.870;4.722;2022-07-04T06:26:54;12.70;;;2.37;;
14554;SDS011;7364;50.870;4.722;2022-07-04T06:29:21;8.10;;;1.90;;
14554;SDS011;7364;50.870;4.722;2022-07-04T06:31:48;3.87;;;1.80;;
14554;SDS011;7364;50.870;4.722;2022-07-04T06:34:15;4.50;;;1.80;;
14554;SDS011;7364;50.870;4.722;2022-07-04T06:37:00;4.30;;;2.17;;
14554;SDS011;7364;50.870;4.722;2022-07-04T06:39:27;4.30;;;1.70;;
14554;SDS011;7364;50.870;4.722;2022-07-04T06:41:56;6.20;;;2.20;;
14554;SDS011;7364;50.870;4.722;2022-07-04T06:44:23;6.03;;;2.47;;
14554;SDS011;7364;50.870;4.722;2022-07-04T06:46:50;4.47;;;1.90;;
14554;SDS011;7364;50.870;4.722;2022-07-04T06:49:18;4.93;;;1.50;;
14554;SDS011;7364;50.870;4.722;2022-07-04T06:51:45;5.00;;;1.77;;
14554;SDS011;7364;50.870;4.722;2022-07-04T06:54:13;4.90;;;2.10;;
14554;SDS011;7364;50.870;4.722;2022-07-04T06:56:40;10.63;;;2.50;;
14554;SDS011;7364;50.870;4.722;2022-07-04T06:59:09;4.70;;;1.67;;
14554;SDS011;7364;50.870;4.722;2022-07-04T07:01:36;4.20;;;2.00;;
14554;SDS011;7364;50.870;4.722;2022-07-04T07:04:06;6.23;;;2.67;;
14554;SDS011;7364;50.870;4.722;2022-07-04T07:06:34;7.47;;;2.50;;
14554;SDS011;7364;50.870;4.722;2022-07-04T07:09:03;3.87;;;2.30;;
14554;SDS011;7364;50.870;4.722;2022-07-04T07:11:31;4.87;;;2.37;;
14554;SDS011;7364;50.870;4.722;2022-07-04T07:13:58;4.60;;;2.30;;
14554;SDS011;7364;50.870;4.722;2022-07-04T07:16:26;2.70;;;1.93;;
14554;SDS011;7364;50.870;4.722;2022-07-04T07:18:54;6.17;;;2.40;;
14554;SDS011;7364;50.870;4.722;2022-07-04T07:21:21;4.53;;;1.73;;
14554;SDS011;7364;50.870;4.722;2022-07-04T07:23:48;4.27;;;1.90;;
14554;SDS011;7364;50.870;4.722;2022-07-04T07:26:16;4.80;;;1.90;;
14554;SDS011;7364;50.870;4.722;2022-07-04T07:28:43;3.50;;;1.90;;
14554;SDS011;7364;50.870;4.722;2022-07-04T07:31:10;3.73;;;1.97;;
14554;SDS011;7364;50.870;4.722;2022-07-04T07:33:39;4.97;;;1.90;;
14554;SDS011;7364;50.870;4.722;2022-07-04T07:36:06;6.43;;;1.97;;
14554;SDS011;7364;50.870;4.722;2022-07-04T07:38:33;4.37;;;1.87;;
14554;SDS011;7364;50.870;4.722;2022-07-04T07:41:00;4.80;;;1.97;;
14554;SDS011;7364;50.870;4.722;2022-07-04T07:43:27;4.67;;;2.40;;
14554;SDS011;7364;50.870;4.722;2022-07-04T07:45:55;5.77;;;2.37;;
14554;SDS011;7364;50.870;4.722;2022-07-04T07:48:23;10.50;;;2.40;;
14554;SDS011;7364;50.870;4.722;2022-07-04T07:50:51;5.80;;;2.33;;
14554;SDS011;7364;50.870;4.722;2022-07-04T07:53:18;5.07;;;1.80;;
14554;SDS011;7364;50.870;4.722;2022-07-04T07:55:46;4.67;;;2.13;;
14554;SDS011;7364;50.870;4.722;2022-07-04T07:58:13;8.27;;;2.37;;
14554;SDS011;7364;50.870;4.722;2022-07-04T08:00:40;7.70;;;1.90;;
14554;SDS011;7364;50.870;4.722;2022-07-04T08:03:07;7.83;;;1.90;;
14554;SDS011;7364;50.870;4.722;2022-07-04T08:05:52;8.47;;;2.30;;
14554;SDS011;7364;50.870;4.722;2022-07-04T08:08:19;4.87;;;1.63;;
14554;SDS011;7364;50.870;4.722;2022-07-04T08:10:48;3.93;;;1.67;;
14554;SDS011;7364;50.870;4.722;2022-07-04T08:13:15;3.53;;;1.80;;
14554;SDS011;7364;50.870;4.722;2022-07-04T08:15:43;4.80;;;1.67;;
14554;SDS011;7364;50.870;4.722;2022-07-04T08:18:10;3.37;;;1.47;;
14554;SDS011;7364;50.870;4.722;2022-07-04T08:20:38;5.20;;;1.77;;
14554;SDS011;7364;50.870;4.722;2022-07-04T08:23:06;8.13;;;1.73;;
14554;SDS011;7364;50.870;4.722;2022-07-04T08:25:33;5.63;;;2.07;;
14554;SDS011;7364;50.870;4.722;2022-07-04T08:28:04;5.70;;;1.87;;
14554;SDS011;7364;50.870;4.722;2022-07-04T08:30:31;7.13;;;1.60;;
14554;SDS011;7364;50.870;4.722;2022-07-04T08:32:58;4.70;;;1.73;;
14554;SDS011;7364;50.870;4.722;2022-07-04T08:35:26;5.77;;;2.00;;
14554;SDS011;7364;50.870;4.722;2022-07-04T08:37:53;8.00;;;1.70;;
14554;SDS011;7364;50.870;4.722;2022-07-04T08:40:22;7.73;;;2.13;;
14554;SDS011;7364;50.870;4.722;2022-07-04T08:42:51;3.63;;;1.70;;
14554;SDS011;7364;50.870;4.722;2022-07-04T08:45:21;6.67;;;1.90;;
14554;SDS011;7364;50.870;4.722;2022-07-04T08:47:52;5.67;;;1.60;;
14554;SDS011;7364;50.870;4.722;2022-07-04T08:50:26;4.40;;;1.80;;
14554;SDS011;7364;50.870;4.722;2022-07-04T08:52:58;4.90;;;1.57;;
14554;SDS011;7364;50.870;4.722;2022-07-04T08:55:28;2.97;;;1.40;;
14554;SDS011;7364;50.870;4.722;2022-07-04T08:58:14;5.60;;;1.50;;
14554;SDS011;7364;50.870;4.722;2022-07-04T09:00:57;4.73;;;1.50;;
14554;SDS011;7364;50.870;4.722;2022-07-04T09:03:25;6.67;;;1.50;;
14554;SDS011;7364;50.870;4.722;2022-07-04T09:05:54;4.83;;;1.50;;
14554;SDS011;7364;50.870;4.722;2022-07-04T09:08:22;5.20;;;1.70;;
14554;SDS011;7364;50.870;4.722;2022-07-04T09:10:51;3.27;;;1.50;;
14554;SDS011;7364;50.870;4.722;2022-07-04T09:13:19;8.17;;;1.47;;
14554;SDS011;7364;50.870;4.722;2022-07-04T09:15:47;4.23;;;1.77;;
14554;SDS011;7364;50.870;4.722;2022-07-04T09:18:19;5.83;;;1.50;;
14554;SDS011;7364;50.870;4.722;2022-07-04T09:20:47;5.97;;;1.70;;
14554;SDS011;7364;50.870;4.722;2022-07-04T09:23:16;8.67;;;1.67;;
14554;SDS011;7364;50.870;4.722;2022-07-04T09:25:45;4.50;;;1.50;;
14554;SDS011;7364;50.870;4.722;2022-07-04T09:28:16;5.73;;;1.70;;
14554;SDS011;7364;50.870;4.722;2022-07-04T09:30:53;6.87;;;1.67;;
14554;SDS011;7364;50.870;4.722;2022-07-04T09:33:34;19.80;;;4.90;;
14554;SDS011;7364;50.870;4.722;2022-07-04T09:36:11;8.43;;;1.90;;
14554;SDS011;7364;50.870;4.722;2022-07-04T09:38:39;4.00;;;1.80;;
14554;SDS011;7364;50.870;4.722;2022-07-04T09:41:07;2.93;;;1.40;;
14554;SDS011;7364;50.870;4.722;2022-07-04T09:44:03;2.20;;;1.40;;
14554;SDS011;7364;50.870;4.722;2022-07-04T09:46:31;3.00;;;1.47;;
14554;SDS011;7364;50.870;4.722;2022-07-04T09:48:59;2.37;;;1.50;;
14554;SDS011;7364;50.870;4.722;2022-07-04T09:51:37;4.50;;;1.57;;
14554;SDS011;7364;50.870;4.722;2022-07-04T09:54:16;2.50;;;1.40;;
14554;SDS011;7364;50.870;4.722;2022-07-04T09:56:50;3.90;;;1.57;;
14554;SDS011;7364;50.870;4.722;2022-07-04T09:59:20;3.00;;;1.47;;
14554;SDS011;7364;50.870;4.722;2022-07-04T10:01:49;4.63;;;1.43;;
14554;SDS011;7364;50.870;4.722;2022-07-04T10:04:17;10.60;;;2.07;;
14554;SDS011;7364;50.870;4.722;2022-07-04T10:06:46;4.20;;;1.60;;
14554;SDS011;7364;50.870;4.722;2022-07-04T10:09:14;2.63;;;1.70;;
14554;SDS011;7364;50.870;4.722;2022-07-04T10:11:43;5.97;;;1.93;;
14554;SDS011;7364;50.870;4.722;2022-07-04T10:14:12;3.60;;;1.87;;
14554;SDS011;7364;50.870;4.722;2022-07-04T10:16:42;5.43;;;1.80;;
14554;SDS011;7364;50.870;4.722;2022-07-04T10:19:09;2.57;;;1.40;;
14554;SDS011;7364;50.870;4.722;2022-07-04T10:21:38;4.27;;;1.87;;
14554;SDS011;7364;50.870;4.722;2022-07-04T10:24:06;5.17;;;1.97;;
14554;SDS011;7364;50.870;4.722;2022-07-04T10:26:33;7.90;;;1.90;;
14554;SDS011;7364;50.870;4.722;2022-07-04T10:29:01;5.57;;;2.10;;
14554;SDS011;7364;50.870;4.722;2022-07-04T10:31:29;2.83;;;1.90;;
14554;SDS011;7364;50.870;4.722;2022-07-04T10:33:59;5.30;;;2.00;;
14554;SDS011;7364;50.870;4.722;2022-07-04T10:36:28;4.70;;;2.10;;
14554;SDS011;7364;50.870;4.722;2022-07-04T10:38:57;4.37;;;1.47;;
14554;SDS011;7364;50.870;4.722;2022-07-04T10:41:26;2.10;;;1.30;;
14554;SDS011;7364;50.870;4.722;2022-07-04T10:43:58;2.93;;;1.33;;
14554;SDS011;7364;50.870;4.722;2022-07-04T10:49:22;3.13;;;1.47;;
14554;SDS011;7364;50.870;4.722;2022-07-04T10:51:55;3.77;;;1.73;;
14554;SDS011;7364;50.870;4.722;2022-07-04T10:54:33;3.13;;;1.50;;
14554;SDS011;7364;50.870;4.722;2022-07-04T10:57:09;3.73;;;1.53;;
14554;SDS011;7364;50.870;4.722;2022-07-04T10:59:41;5.70;;;1.67;;
14554;SDS011;7364;50.870;4.722;2022-07-04T11:02:28;2.13;;;1.37;;
14554;SDS011;7364;50.870;4.722;2022-07-04T11:04:58;4.47;;;1.40;;
14554;SDS011;7364;50.870;4.722;2022-07-04T11:10:26;3.70;;;1.77;;
14554;SDS011;7364;50.870;4.722;2022-07-04T11:18:38;5.77;;;2.10;;
14554;SDS011;7364;50.870;4.722;2022-07-04T11:21:21;3.70;;;2.00;;
14554;SDS011;7364;50.870;4.722;2022-07-04T11:23:53;5.70;;;3.07;;
14554;SDS011;7364;50.870;4.722;2022-07-04T11:26:22;5.40;;;3.40;;
14554;SDS011;7364;50.870;4.722;2022-07-04T11:28:50;6.80;;;4.20;;
14554;SDS011;7364;50.870;4.722;2022-07-04T11:31:17;6.70;;;4.00;;
14554;SDS011;7364;50.870;4.722;2022-07-04T11:33:44;7.33;;;4.27;;
14554;SDS011;7364;50.870;4.722;2022-07-04T11:36:13;7.57;;;5.10;;
14554;SDS011;7364;50.870;4.722;2022-07-04T11:38:51;11.20;;;5.83;;
14554;SDS011;7364;50.870;4.722;2022-07-04T11:41:20;11.67;;;5.97;;
14554;SDS011;7364;50.870;4.722;2022-07-04T11:44:07;8.63;;;6.10;;
14554;SDS011;7364;50.870;4.722;2022-07-04T11:47:12;5.87;;;4.10;;
14554;SDS011;7364;50.870;4.722;2022-07-04T11:49:42;6.50;;;3.93;;
14554;SDS011;7364;50.870;4.722;2022-07-04T11:52:11;9.27;;;3.53;;
14554;SDS011;7364;50.870;4.722;2022-07-04T11:54:41;5.73;;;3.90;;
14554;SDS011;7364;50.870;4.722;2022-07-04T11:57:12;7.33;;;3.20;;
14554;SDS011;7364;50.870;4.722;2022-07-04T11:59:42;6.60;;;3.27;;
14554;SDS011;7364;50.870;4.722;2022-07-04T12:02:18;7.90;;;3.83;;
14554;SDS011;7364;50.870;4.722;2022-07-04T12:04:45;10.10;;;4.87;;
14554;SDS011;7364;50.870;4.722;2022-07-04T12:07:13;9.10;;;5.73;;
14554;SDS011;7364;50.870;4.722;2022-07-04T12:09:43;9.60;;;5.57;;
14554;SDS011;7364;50.870;4.722;2022-07-04T12:12:11;4.57;;;2.90;;
14554;SDS011;7364;50.870;4.722;2022-07-04T12:14:39;4.30;;;2.23;;
14554;SDS011;7364;50.870;4.722;2022-07-04T12:17:22;3.47;;;1.50;;
14554;SDS011;7364;50.870;4.722;2022-07-04T12:19:55;4.20;;;1.77;;
14554;SDS011;7364;50.870;4.722;2022-07-04T12:22:27;5.60;;;2.00;;
14554;SDS011;7364;50.870;4.722;2022-07-04T12:24:58;4.13;;;1.67;;
14554;SDS011;7364;50.870;4.722;2022-07-04T12:27:26;3.47;;;1.70;;
14554;SDS011;7364;50.870;4.722;2022-07-04T12:29:54;4.73;;;1.90;;
14554;SDS011;7364;50.870;4.722;2022-07-04T12:32:23;3.77;;;1.63;;
14554;SDS011;7364;50.870;4.722;2022-07-04T12:35:09;3.23;;;1.77;;
14554;SDS011;7364;50.870;4.722;2022-07-04T12:37:36;4.17;;;1.60;;
14554;SDS011;7364;50.870;4.722;2022-07-04T12:40:07;4.63;;;1.63;;
14554;SDS011;7364;50.870;4.722;2022-07-04T12:42:35;5.23;;;1.70;;
14554;SDS011;7364;50.870;4.722;2022-07-04T12:45:04;4.73;;;1.90;;
14554;SDS011;7364;50.870;4.722;2022-07-04T12:47:32;2.70;;;1.50;;
14554;SDS011;7364;50.870;4.722;2022-07-04T12:49:59;7.27;;;2.00;;
14554;SDS011;7364;50.870;4.722;2022-07-04T12:52:27;4.43;;;2.00;;
14554;SDS011;7364;50.870;4.722;2022-07-04T12:57:40;2.93;;;1.70;;
14554;SDS011;7364;50.870;4.722;2022-07-04T13:00:08;2.57;;;1.60;;
14554;SDS011;7364;50.870;4.722;2022-07-04T13:02:37;6.43;;;1.90;;
14554;SDS011;7364;50.870;4.722;2022-07-04T13:05:05;5.70;;;1.87;;
14554;SDS011;7364;50.870;4.722;2022-07-04T13:07:32;3.07;;;1.70;;
14554;SDS011;7364;50.870;4.722;2022-07-04T13:09:59;4.20;;;1.93;;
14554;SDS011;7364;50.870;4.722;2022-07-04T13:12:28;4.03;;;1.67;;
14554;SDS011;7364;50.870;4.722;2022-07-04T13:14:56;3.93;;;1.43;;
14554;SDS011;7364;50.870;4.722;2022-07-04T13:17:25;4.13;;;1.80;;
14554;SDS011;7364;50.870;4.722;2022-07-04T13:19:53;5.30;;;1.60;;
14554;SDS011;7364;50.870;4.722;2022-07-04T13:22:21;4.37;;;1.40;;
14554;SDS011;7364;50.870;4.722;2022-07-04T13:24:49;4.17;;;1.60;;
14554;SDS011;7364;50.870;4.722;2022-07-04T13:27:17;3.13;;;1.40;;
14554;SDS011;7364;50.870;4.722;2022-07-04T13:29:46;3.43;;;1.90;;
14554;SDS011;7364;50.870;4.722;2022-07-04T13:32:13;5.07;;;1.43;;
14554;SDS011;7364;50.870;4.722;2022-07-04T13:34:41;3.92;;;1.48;;
14554;SDS011;7364;50.870;4.722;2022-07-04T13:37:08;4.18;;;1.52;;
14554;SDS011;7364;50.870;4.722;2022-07-04T13:39:35;4.38;;;1.60;;
14554;SDS011;7364;50.870;4.722;2022-07-04T13:42:02;3.53;;;1.45;;
14554;SDS011;7364;50.870;4.722;2022-07-04T13:44:30;2.80;;;1.05;;
14554;SDS011;7364;50.870;4.722;2022-07-04T13:46:58;3.08;;;1.42;;
14554;SDS011;7364;50.870;4.722;2022-07-04T13:49:25;4.18;;;1.58;;
14554;SDS011;7364;50.870;4.722;2022-07-04T13:51:54;4.05;;;1.40;;
14554;SDS011;7364;50.870;4.722;2022-07-04T13:54:21;3.95;;;1.30;;
14554;SDS011;7364;50.870;4.722;2022-07-04T13:56:49;4.03;;;1.40;;
14554;SDS011;7364;50.870;4.722;2022-07-04T13:59:17;2.38;;;1.15;;
14554;SDS011;7364;50.870;4.722;2022-07-04T14:01:44;2.17;;;1.23;;
14554;SDS011;7364;50.870;4.722;2022-07-04T14:04:14;3.60;;;1.50;;
14554;SDS011;7364;50.870;4.722;2022-07-04T14:06:41;4.32;;;1.73;;
14554;SDS011;7364;50.870;4.722;2022-07-04T14:09:08;4.25;;;1.40;;
14554;SDS011;7364;50.870;4.722;2022-07-04T14:11:35;3.20;;;1.60;;
14554;SDS011;7364;50.870;4.722;2022-07-04T14:14:02;2.23;;;1.50;;
14554;SDS011;7364;50.870;4.722;2022-07-04T14:16:29;3.67;;;1.50;;
14554;SDS011;7364;50.870;4.722;2022-07-04T14:18:56;4.13;;;1.40;;
14554;SDS011;7364;50.870;4.722;2022-07-04T14:21:25;1.67;;;1.13;;
14554;SDS011;7364;50.870;4.722;2022-07-04T14:23:52;3.20;;;1.30;;
14554;SDS011;7364;50.870;4.722;2022-07-04T14:26:20;2.42;;;1.10;;
14554;SDS011;7364;50.870;4.722;2022-07-04T14:28:50;2.38;;;1.50;;
14554;SDS011;7364;50.870;4.722;2022-07-04T14:31:17;2.70;;;1.52;;
14554;SDS011;7364;50.870;4.722;2022-07-04T14:33:44;3.08;;;1.35;;
14554;SDS011;7364;50.870;4.722;2022-07-04T14:36:13;2.63;;;1.25;;
14554;SDS011;7364;50.870;4.722;2022-07-04T14:38:41;1.73;;;1.05;;
14554;SDS011;7364;50.870;4.722;2022-07-04T14:41:08;4.25;;;1.20;;
14554;SDS011;7364;50.870;4.722;2022-07-04T14:43:36;2.45;;;1.02;;
14554;SDS011;7364;50.870;4.722;2022-07-04T14:46:04;2.80;;;1.20;;
14554;SDS011;7364;50.870;4.722;2022-07-04T14:48:32;2.72;;;1.33;;
14554;SDS011;7364;50.870;4.722;2022-07-04T14:50:59;4.13;;;1.35;;
14554;SDS011;7364;50.870;4.722;2022-07-04T14:53:27;1.63;;;1.10;;
14554;SDS011;7364;50.870;4.722;2022-07-04T14:55:55;2.58;;;1.45;;
14554;SDS011;7364;50.870;4.722;2022-07-04T14:58:22;1.42;;;1.00;;
14554;SDS011;7364;50.870;4.722;2022-07-04T15:00:50;2.72;;;1.27;;
14554;SDS011;7364;50.870;4.722;2022-07-04T15:03:17;1.60;;;1.17;;
14554;SDS011;7364;50.870;4.722;2022-07-04T15:05:44;3.10;;;1.40;;
14554;SDS011;7364;50.870;4.722;2022-07-04T15:08:11;2.28;;;1.10;;
14554;SDS011;7364;50.870;4.722;2022-07-04T15:10:38;3.97;;;1.42;;
14554;SDS011;7364;50.870;4.722;2022-07-04T15:13:07;3.72;;;1.45;;
14554;SDS011;7364;50.870;4.722;2022-07-04T15:15:34;3.83;;;1.30;;
14554;SDS011;7364;50.870;4.722;2022-07-04T15:18:01;3.35;;;1.30;;
14554;SDS011;7364;50.870;4.722;2022-07-04T15:20:29;2.60;;;1.13;;
14554;SDS011;7364;50.870;4.722;2022-07-04T15:23:14;3.50;;;1.45;;
14554;SDS011;7364;50.870;4.722;2022-07-04T15:25:58;1.95;;;1.13;;